Portada
METAR-TAF:

METAR-TAF

Aeroports :

Sandakan, Malàisia

latitud: 05-54N, longitud: 118-04E, altitud: 12 m

Observació

L'informe es va fer fa 1 hora i 11 minuts, a les 17:00 UTC
Vent 6 kt del Nord/Nord-Est, variant entre Nord i Est
Temperatura 27°C
Humitat 84%
Pressió 1010 hPa
Visibilitat 10 km o més
Escasses núvols a una alçada de 1600 ft

METAR: WBKS 271700Z 03006KT 350V080 9999 FEW016 27/24 Q1010

Hora: 02:11 (18:11 UTC)

Pronòstic

L'informe es va fer fa 1 hora i 11 minuts, a les 17:00 UTC
Pronòstic vàlid del 27 a les 18 UTC al 28 a les 18 UTC
Vent 8 kt del Nord/Nord-Est
Visibilitat 10 km o més
Escasses núvols a una alçada de 1500 ft

TAF: WBKS 271700Z 2718/2818 03008KT 9999 FEW015

Observacions i pronòstics meteorològics de més de 4000 aeroports (METAR i TAF).

Les estacions disponibles són els punts grocs i vermells al mapa.

Posi el ratolí al punt desitjat per veure el nom de l'estació.

Feu clic per veure les observacions i els pronòstics meteorològics.

Per canviar el mapa: feu clic els botons verds amb una creu de color negre per apropar; al botó verd amb un guió per allunyar la imatge; o en les fletxes verdes per a mapes adjacents.


METAR-TAF: